Alberta, Minnesota
Current Conditions -  °F | °C
As of 6:35 AM on Monday 24 Nov 2014 (Local Time) from KAQP Reporting Station
Overcast Overcast  
Wind Chill: -19°   Ceiling: 4600
Heat Index: -9°   Visibility: 10mi
Dew Point: -12°   Wind: 22mph
Humidity: 79%   Direction: 320°NW
Pressure: 29.57"   Gusts: 33mph
Location:  45.57°N, 96.05°W
Report Text: KAQP 241235Z AUTO 32019G29KT 10SM SCT019 SCT032 OVC046 M09/M12 A2957 RMK AO2
Loading
Personal Weather Stations






























Interactive Weather Map New forecast layout! Learn more

10-Day Weather Forecast

Advertisements
Track Severe Weather on mobile